Time;durP1;ratioP1;P1;durP2;ratioP2;P2;SDS_P1;SDS_P2;PMS_P1;PMS_P2;Temp;Humidity;BMP_temperature;BMP_pressure;BME280_temperature;BME280_humidity;BME280_pressure;Samples;Min_cycle;Max_cycle;Signal;HPM_P1;HPM_P2
2023/10/13 00:02:01;;;;;;;3.00;1.63;;;16.00;99.90;;;;;;5094301;28;20119;-75
2023/10/13 00:04:27;;;;;;;1.30;1.10;;;16.00;99.90;;;;;;5094273;28;20036;-76
2023/10/13 00:06:53;;;;;;;2.35;1.38;;;16.10;99.90;;;;;;5094292;28;20071;-77
2023/10/13 00:09:25;;;;;;;1.00;0.93;;;16.10;99.90;;;;;;5092710;28;20056;-74
2023/10/13 00:11:53;;;;;;;3.38;1.40;;;16.00;99.90;;;;;;5094111;28;20043;-75
2023/10/13 00:14:21;;;;;;;1.33;1.15;;;16.00;99.90;;;;;;5093948;28;20055;-75
2023/10/13 00:17:03;;;;;;;2.22;1.38;;;16.10;99.90;;;;;;5093912;28;20046;-74
2023/10/13 00:19:54;;;;;;;1.88;1.33;;;16.10;99.90;;;;;;5094155;28;20078;-76
2023/10/13 00:22:19;;;;;;;0.93;0.90;;;16.10;99.90;;;;;;5092166;28;20059;-75
2023/10/13 00:24:50;;;;;;;1.52;1.42;;;16.00;99.90;;;;;;5093939;28;20047;-76
2023/10/13 00:27:29;;;;;;;1.35;1.23;;;16.10;99.90;;;;;;5093816;28;20047;-76
2023/10/13 00:30:20;;;;;;;1.65;1.25;;;16.10;99.90;;;;;;5094370;28;20130;-76
2023/10/13 00:32:56;;;;;;;1.55;1.17;;;16.10;99.90;;;;;;5094626;28;20074;-75
2023/10/13 00:35:29;;;;;;;1.15;1.05;;;16.10;99.90;;;;;;5093189;28;20071;-77
2023/10/13 00:38:07;;;;;;;0.93;0.73;;;16.10;99.90;;;;;;5093964;28;20036;-75
2023/10/13 00:43:31;;;;;;;2.10;1.53;;;16.10;99.90;;;;;;5093739;28;20048;-76
2023/10/13 00:45:54;;;;;;;2.17;1.48;;;15.90;99.90;;;;;;5091914;28;20066;-75
2023/10/13 00:48:28;;;;;;;2.83;1.58;;;16.10;99.90;;;;;;5093530;28;20043;-73
2023/10/13 00:51:07;;;;;;;2.50;2.03;;;16.10;99.90;;;;;;5093635;28;20043;-75
2023/10/13 00:53:39;;;;;;;1.08;0.98;;;16.10;99.90;;;;;;5093559;28;20043;-75
2023/10/13 00:56:07;;;;;;;1.65;1.40;;;16.00;99.90;;;;;;5093527;28;20044;-76
2023/10/13 00:58:39;;;;;;;2.13;1.63;;;16.10;99.90;;;;;;5092675;28;20044;-76
2023/10/13 01:01:17;;;;;;;2.85;1.23;;;16.10;99.90;;;;;;5093516;28;20040;-75
2023/10/13 01:03:55;;;;;;;1.42;1.25;;;16.10;99.90;;;;;;5093486;28;20044;-75
2023/10/13 01:06:28;;;;;;;1.30;1.20;;;16.10;99.90;;;;;;5093904;28;20044;-79
2023/10/13 01:09:17;;;;;;;2.58;1.73;;;16.20;99.90;;;;;;5093345;28;20087;-76
2023/10/13 01:11:51;;;;;;;1.80;1.15;;;16.10;99.90;;;;;;5093529;28;20127;-75
2023/10/13 01:14:21;;;;;;;2.38;1.45;;;16.10;99.90;;;;;;5093342;28;20044;-77
2023/10/13 01:16:49;;;;;;;1.05;0.85;;;16.10;99.90;;;;;;5093058;28;20529;-76
2023/10/13 01:19:27;;;;;;;1.15;1.05;;;16.10;99.90;;;;;;5092791;28;20040;-75
2023/10/13 01:22:04;;;;;;;2.33;2.13;;;16.20;99.90;;;;;;5093364;28;20047;-74
2023/10/13 01:24:35;;;;;;;1.45;1.00;;;16.30;99.90;;;;;;5093315;28;20040;-76
2023/10/13 01:27:38;;;;;;;3.72;1.13;;;16.10;99.90;;;;;;5093615;28;20036;-75
2023/10/13 01:29:58;;;;;;;1.88;1.48;;;16.20;99.90;;;;;;5090939;28;20043;-75
2023/10/13 01:32:24;;;;;;;0.88;0.82;;;16.10;99.90;;;;;;5093358;28;20040;-76
2023/10/13 01:34:55;;;;;;;1.17;0.90;;;16.20;99.90;;;;;;5095338;28;20050;-76
2023/10/13 01:37:21;;;;;;;1.05;0.95;;;16.20;99.90;;;;;;5096768;28;20483;-73
2023/10/13 01:39:49;;;;;;;1.77;1.67;;;16.20;99.90;;;;;;5096788;28;20040;-76
2023/10/13 01:42:19;;;;;;;3.42;1.67;;;16.20;99.90;;;;;;5095926;28;20063;-75
2023/10/13 01:44:45;;;;;;;1.90;1.65;;;16.20;99.90;;;;;;5097149;28;20047;-75
2023/10/13 01:47:12;;;;;;;1.03;0.97;;;16.20;99.90;;;;;;5096724;28;20036;-75
2023/10/13 01:49:58;;;;;;;3.42;1.30;;;16.20;99.90;;;;;;5096722;28;20040;-76
2023/10/13 01:52:27;;;;;;;1.05;1.00;;;16.20;99.90;;;;;;5096556;28;20472;-75
2023/10/13 01:54:54;;;;;;;2.47;1.48;;;16.20;99.90;;;;;;5096704;28;20368;-76
2023/10/13 01:57:23;;;;;;;0.95;0.88;;;16.10;99.90;;;;;;5096643;28;20047;-74
2023/10/13 01:59:49;;;;;;;0.88;0.88;;;16.20;99.90;;;;;;5096704;28;20051;-76
2023/10/13 02:02:28;;;;;;;1.73;1.10;;;16.20;99.90;;;;;;5096499;28;20036;-75
2023/10/13 02:05:00;;;;;;;2.05;1.30;;;16.20;99.90;;;;;;5096506;28;20044;-75
2023/10/13 02:07:34;;;;;;;3.95;1.95;;;16.20;99.90;;;;;;5094931;28;20529;-75
2023/10/13 02:10:04;;;;;;;1.52;1.42;;;16.20;99.90;;;;;;5096020;28;20036;-75
2023/10/13 02:12:36;;;;;;;1.05;0.95;;;16.10;99.90;;;;;;5096244;28;20082;-77
2023/10/13 02:15:04;;;;;;;1.33;0.93;;;16.20;99.90;;;;;;5096235;28;20043;-76
2023/10/13 02:17:40;;;;;;;1.52;1.40;;;16.20;99.90;;;;;;5094712;28;20079;-75
2023/10/13 02:20:15;;;;;;;1.58;1.27;;;16.20;99.90;;;;;;5096561;28;20126;-74
2023/10/13 02:22:49;;;;;;;1.88;1.45;;;16.20;99.90;;;;;;5096457;28;20459;-75
2023/10/13 02:25:35;;;;;;;1.70;0.88;;;16.20;99.90;;;;;;5095907;28;20032;-75
2023/10/13 02:28:01;;;;;;;1.30;1.20;;;16.20;99.90;;;;;;5096042;28;20051;-74
2023/10/13 02:30:27;;;;;;;1.33;1.23;;;16.20;99.90;;;;;;5096300;28;20474;-74
2023/10/13 02:32:55;;;;;;;0.93;0.83;;;16.20;99.90;;;;;;5095702;28;20040;-75
2023/10/13 02:35:29;;;;;;;1.63;1.17;;;16.10;99.90;;;;;;5095833;28;20438;-73
2023/10/13 02:37:57;;;;;;;2.78;1.80;;;16.20;99.90;;;;;;5095782;28;20197;-74
2023/10/13 02:40:23;;;;;;;0.82;0.82;;;16.20;99.90;;;;;;5095190;28;20054;-76
2023/10/13 02:42:49;;;;;;;3.13;1.53;;;16.20;99.90;;;;;;5095646;28;20456;-74
2023/10/13 02:45:15;;;;;;;1.23;1.13;;;16.20;99.90;;;;;;5095285;28;20119;-76
2023/10/13 02:47:44;;;;;;;1.13;1.03;;;16.20;99.90;;;;;;5095175;28;20817;-76
2023/10/13 02:50:12;;;;;;;1.88;1.77;;;16.20;99.90;;;;;;5095726;28;20482;-76
2023/10/13 02:52:41;;;;;;;1.35;1.17;;;16.20;99.90;;;;;;5095511;28;20376;-75
2023/10/13 02:55:14;;;;;;;11.65;1.20;;;16.20;99.90;;;;;;5095563;28;20048;-76
2023/10/13 02:57:40;;;;;;;1.40;1.13;;;;;;;;;;5095747;28;20056;-75
2023/10/13 03:00:15;;;;;;;1.17;1.08;;;16.20;99.90;;;;;;5095803;28;20364;-75
2023/10/13 03:02:44;;;;;;;3.28;1.73;;;16.20;99.90;;;;;;5094195;28;20556;-75
2023/10/13 03:05:13;;;;;;;1.23;0.98;;;16.20;99.90;;;;;;5093991;28;20376;-77
2023/10/13 03:07:43;;;;;;;1.35;1.25;;;16.30;99.90;;;;;;5094919;28;20484;-76
2023/10/13 03:10:11;;;;;;;0.95;0.88;;;16.20;99.90;;;;;;5095581;28;20048;-75
2023/10/13 03:12:37;;;;;;;1.63;1.20;;;16.20;99.90;;;;;;5095121;28;20112;-77
2023/10/13 03:15:16;;;;;;;0.80;0.80;;;16.30;99.90;;;;;;5095269;28;20089;-74
2023/10/13 03:17:45;;;;;;;2.22;1.05;;;16.20;99.90;;;;;;5095009;28;20040;-74
2023/10/13 03:20:15;;;;;;;1.95;1.65;;;16.10;99.90;;;;;;5095197;28;20047;-74
2023/10/13 03:22:47;;;;;;;3.70;1.65;;;16.20;99.90;;;;;;5095140;28;20040;-76
2023/10/13 03:25:29;;;;;;;1.48;1.38;;;16.20;99.90;;;;;;5095090;28;20040;-76
2023/10/13 03:30:43;;;;;;;1.75;1.58;;;16.20;99.90;;;;;;5095442;28;20143;-75
2023/10/13 03:33:13;;;;;;;2.15;1.17;;;16.20;99.90;;;;;;5095358;28;20379;-76
2023/10/13 03:35:43;;;;;;;1.38;1.27;;;16.20;99.90;;;;;;5094997;28;20040;-75
2023/10/13 03:38:19;;;;;;;1.30;1.20;;;16.20;99.90;;;;;;5094801;28;20036;-76
2023/10/13 03:41:06;;;;;;;1.52;1.38;;;16.10;99.90;;;;;;5094578;28;20040;-75
2023/10/13 03:43:32;;;;;;;1.77;1.55;;;16.20;99.90;;;;;;5094546;28;20043;-75
2023/10/13 03:46:06;;;;;;;7.93;2.00;;;16.30;99.90;;;;;;5095071;28;20028;-74
2023/10/13 03:48:40;;;;;;;0.85;0.82;;;16.30;99.90;;;;;;5094646;28;20387;-76
2023/10/13 03:54:07;;;;;;;2.83;0.95;;;16.20;99.90;;;;;;5095335;28;20051;-75
2023/10/13 03:56:28;;;;;;;1.42;1.15;;;16.20;99.90;;;;;;5094255;28;20100;-77
2023/10/13 03:59:00;;;;;;;1.10;1.00;;;16.20;99.90;;;;;;5094286;28;20032;-75
2023/10/13 04:01:32;;;;;;;1.77;1.60;;;16.20;99.90;;;;;;5094281;28;20417;-75
2023/10/13 04:04:08;;;;;;;1.30;1.20;;;16.30;99.90;;;;;;5094291;28;20039;-75
2023/10/13 04:17:26;;;;;;;1.38;1.27;;;16.20;99.90;;;;;;5094604;28;20051;-74
2023/10/13 04:36:14;;;;;;;0.70;0.70;;;16.20;99.90;;;;;;5094397;28;20052;-77
2023/10/13 04:41:42;;;;;;;2.13;1.00;;;16.20;99.90;;;;;;5093740;28;20048;-76
2023/10/13 04:55:09;;;;;;;1.17;1.03;;;16.10;99.90;;;;;;5094123;28;20476;-76
2023/10/13 04:57:46;;;;;;;1.27;1.17;;;16.10;99.90;;;;;;5093506;28;20090;-74
2023/10/13 05:05:45;;;;;;;0.80;0.80;;;16.10;99.90;;;;;;5093433;28;20060;-74
2023/10/13 05:51:46;;;;;;;0.70;0.70;;;16.20;99.90;;;;;;5096724;28;20102;-74
2023/10/13 06:29:41;;;;;;;1.25;0.98;;;16.00;99.90;;;;;;5096182;28;20088;-75
2023/10/13 06:32:12;;;;;;;0.80;0.77;;;16.00;99.90;;;;;;5095871;28;20494;-74
2023/10/13 06:34:44;;;;;;;0.50;0.50;;;16.10;99.90;;;;;;5096666;28;20127;-74
2023/10/13 06:37:22;;;;;;;0.60;0.60;;;16.00;99.90;;;;;;5096160;28;20039;-74
2023/10/13 06:39:59;;;;;;;0.68;0.68;;;16.00;99.90;;;;;;5096331;28;20036;-76
2023/10/13 06:42:28;;;;;;;0.80;0.77;;;16.00;99.90;;;;;;5095091;28;20048;-74
2023/10/13 06:44:58;;;;;;;0.80;0.80;;;16.10;99.90;;;;;;5095872;28;20055;-74
2023/10/13 06:47:24;;;;;;;0.98;0.57;;;16.10;99.90;;;;;;5095681;28;20044;-75
2023/10/13 06:49:54;;;;;;;1.05;0.88;;;16.10;99.90;;;;;;5095702;28;20055;-77
2023/10/13 06:52:23;;;;;;;0.40;0.40;;;16.10;99.90;;;;;;5095686;28;20071;-73
2023/10/13 06:54:53;;;;;;;0.77;0.60;;;16.20;99.90;;;;;;5095770;28;20123;-78
2023/10/13 06:57:22;;;;;;;0.60;0.60;;;16.30;99.90;;;;;;5095520;28;20028;-76
2023/10/13 06:59:48;;;;;;;1.25;0.90;;;16.40;99.90;;;;;;5095900;28;20040;-76
2023/10/13 07:02:23;;;;;;;0.93;0.50;;;16.30;99.90;;;;;;5095512;28;20550;-75
2023/10/13 07:04:56;;;;;;;0.73;0.68;;;16.40;99.90;;;;;;5095733;28;20036;-75
2023/10/13 07:07:23;;;;;;;1.20;0.90;;;16.40;99.90;;;;;;5094842;28;20040;-74
2023/10/13 07:09:55;;;;;;;0.63;0.60;;;16.40;99.90;;;;;;5095199;28;20428;-73
2023/10/13 07:12:33;;;;;;;1.95;0.82;;;16.40;99.90;;;;;;5095367;28;20040;-74
2023/10/13 07:15:10;;;;;;;0.50;0.50;;;16.50;99.90;;;;;;5095300;28;20063;-74
2023/10/13 07:17:40;;;;;;;0.60;0.55;;;16.50;99.90;;;;;;5095329;28;20032;-75
2023/10/13 07:23:17;;;;;;;0.30;0.30;;;16.60;99.90;;;;;;5052355;28;20041;-74
2023/10/13 07:25:55;;;;;;;0.68;0.68;;;16.50;99.90;;;;;;5052314;28;20033;-80
2023/10/13 07:28:21;;;;;;;1.27;1.17;;;16.60;99.90;;;;;;5077517;28;20104;-74
2023/10/13 07:33:19;;;;;;;0.30;0.30;;;16.60;99.90;;;;;;5095000;28;20391;-76
2023/10/13 07:36:33;;;;;;;0.43;0.40;;;16.60;99.90;;;;;;5094837;28;20043;-75
2023/10/13 07:39:21;;;;;;;1.10;0.52;;;16.70;99.90;;;;;;5094819;28;20451;-76
2023/10/13 07:41:54;;;;;;;0.30;0.30;;;16.70;99.90;;;;;;5095084;28;20042;-76
2023/10/13 07:44:28;;;;;;;0.80;0.80;;;16.80;99.90;;;;;;5094591;28;20039;-76
2023/10/13 07:47:02;;;;;;;0.88;0.88;;;16.70;99.90;;;;;;5094475;28;20036;-76
2023/10/13 07:49:30;;;;;;;0.63;0.63;;;16.80;99.90;;;;;;5094548;28;20433;-74
2023/10/13 07:54:49;;;;;;;0.30;0.30;;;16.80;99.90;;;;;;5094793;28;20055;-75
2023/10/13 07:57:15;;;;;;;1.20;0.80;;;16.80;99.90;;;;;;5094312;28;20131;-75
2023/10/13 07:59:51;;;;;;;0.40;0.40;;;16.80;99.90;;;;;;5094388;28;20040;-76
2023/10/13 08:02:48;;;;;;;0.63;0.63;;;16.80;99.90;;;;;;5094354;28;20503;-75
2023/10/13 08:05:25;;;;;;;1.15;0.90;;;16.80;99.90;;;;;;5094362;28;20047;-75
2023/10/13 08:07:53;;;;;;;0.77;0.77;;;16.70;99.90;;;;;;5094362;28;20140;-75
2023/10/13 08:10:24;;;;;;;0.52;0.52;;;16.80;99.90;;;;;;5094129;28;20096;-73
2023/10/13 08:12:51;;;;;;;0.68;0.68;;;16.90;99.90;;;;;;5094346;28;20047;-72
2023/10/13 08:15:32;;;;;;;1.10;1.00;;;16.80;99.90;;;;;;5094078;28;20043;-72
2023/10/13 08:17:59;;;;;;;0.40;0.40;;;16.90;99.90;;;;;;5094419;28;20036;-72
2023/10/13 08:20:30;;;;;;;1.85;1.10;;;16.90;99.90;;;;;;5092874;28;20380;-77
2023/10/13 08:23:13;;;;;;;1.85;0.60;;;16.90;99.90;;;;;;5093998;28;20062;-76
2023/10/13 08:31:22;;;;;;;0.50;0.50;;;16.90;99.90;;;;;;5093932;28;20040;-76
2023/10/13 08:33:48;;;;;;;0.40;0.40;;;17.00;99.90;;;;;;5094400;28;20046;-76
2023/10/13 08:36:27;;;;;;;1.38;1.15;;;17.00;99.90;;;;;;5093855;28;20036;-76
2023/10/13 08:38:55;;;;;;;1.45;1.05;;;17.00;99.90;;;;;;5093903;28;20460;-77
2023/10/13 08:43:52;;;;;;;0.60;0.60;;;17.10;99.90;;;;;;5091955;28;20043;-76
2023/10/13 08:46:29;;;;;;;0.40;0.40;;;17.00;99.90;;;;;;5093717;28;20044;-76
2023/10/13 08:49:14;;;;;;;0.63;0.63;;;17.00;99.90;;;;;;5093869;28;20127;-77
2023/10/13 08:51:49;;;;;;;0.70;0.70;;;17.10;99.90;;;;;;5093673;28;20488;-78
2023/10/13 08:54:19;;;;;;;0.50;0.50;;;17.10;99.90;;;;;;5093705;28;20080;-78
2023/10/13 08:56:56;;;;;;;0.85;0.70;;;17.20;99.90;;;;;;5093754;28;20036;-77
2023/10/13 08:59:24;;;;;;;0.57;0.57;;;17.20;99.90;;;;;;5092637;28;20433;-76
2023/10/13 09:01:59;;;;;;;1.23;1.10;;;17.30;99.90;;;;;;5093825;28;20123;-78
2023/10/13 09:09:58;;;;;;;3.42;1.20;;;17.60;99.90;;;;;;5094157;28;20060;-76
2023/10/13 09:17:48;;;;;;;0.65;0.63;;;17.80;99.90;;;;;;5093240;28;20056;-76
2023/10/13 09:25:36;;;;;;;0.85;0.60;;;17.90;99.90;;;;;;5093400;28;20059;-74
2023/10/13 09:28:09;;;;;;;0.50;0.40;;;18.00;99.90;;;;;;5093702;28;20101;-77
2023/10/13 09:30:42;;;;;;;0.50;0.50;;;18.00;99.90;;;;;;5093731;28;20040;-74
2023/10/13 09:33:08;;;;;;;2.13;0.98;;;18.10;99.90;;;;;;5093519;28;20464;-75
2023/10/13 09:35:36;;;;;;;1.60;1.50;;;18.20;99.90;;;;;;5093470;28;20438;-74
2023/10/13 09:38:03;;;;;;;1.38;1.10;;;18.20;99.90;;;;;;5093327;28;20475;-76
2023/10/13 09:43:05;;;;;;;0.85;0.85;;;18.30;99.90;;;;;;5093425;28;20048;-72
2023/10/13 09:45:43;;;;;;;1.48;1.13;;;18.30;99.90;;;;;;5093645;28;20369;-73
2023/10/13 09:48:16;;;;;;;0.70;0.70;;;18.30;99.90;;;;;;5093406;28;20039;-72
2023/10/13 09:50:46;;;;;;;2.20;0.80;;;18.40;99.90;;;;;;5093141;28;20105;-74
2023/10/13 09:53:14;;;;;;;0.50;0.50;;;18.30;99.90;;;;;;5093610;28;20353;-72
2023/10/13 09:56:13;;;;;;;0.70;0.60;;;18.30;99.90;;;;;;5094796;28;20040;-72
2023/10/13 09:58:50;;;;;;;0.90;0.90;;;18.30;99.90;;;;;;5092062;28;20047;-74
2023/10/13 10:01:31;;;;;;;1.70;0.95;;;18.30;99.90;;;;;;5096341;28;20145;-74
2023/10/13 10:04:18;;;;;;;0.43;0.43;;;18.30;99.90;;;;;;5096705;28;20040;-75
2023/10/13 10:06:54;;;;;;;0.90;0.43;;;18.30;99.90;;;;;;5096216;28;20463;-74
2023/10/13 10:09:37;;;;;;;0.95;0.60;;;18.40;99.90;;;;;;5095125;28;20062;-74
2023/10/13 10:12:42;;;;;;;1.20;0.88;;;18.40;99.90;;;;;;5096548;28;20052;-73
2023/10/13 10:15:11;;;;;;;19.95;1.05;;;18.50;99.90;;;;;;5096258;28;20035;-77
2023/10/13 10:17:42;;;;;;;1.42;0.75;;;18.50;99.90;;;;;;5099568;28;20097;-78
2023/10/13 10:20:15;;;;;;;0.82;0.68;;;18.50;99.90;;;;;;5101473;28;20054;-72
2023/10/13 10:22:48;;;;;;;0.40;0.40;;;18.60;99.90;;;;;;5096712;28;20043;-72
2023/10/13 10:25:25;;;;;;;0.47;0.47;;;18.60;99.90;;;;;;5096547;28;20039;-73
2023/10/13 10:27:58;;;;;;;0.43;0.43;;;18.70;99.90;;;;;;5096311;28;20040;-72
2023/10/13 10:30:29;;;;;;;2.15;1.25;;;18.70;99.90;;;;;;5096069;28;20028;-74
2023/10/13 10:32:59;;;;;;;1.30;0.82;;;18.70;99.90;;;;;;5094791;28;20055;-74
2023/10/13 10:35:32;;;;;;;0.82;0.70;;;18.80;99.90;;;;;;5096028;28;20044;-74
2023/10/13 10:38:11;;;;;;;1.27;0.70;;;18.80;99.90;;;;;;5096284;28;20062;-75
2023/10/13 10:40:56;;;;;;;0.45;0.45;;;18.80;99.90;;;;;;5096029;28;20032;-72
2023/10/13 10:43:43;;;;;;;4.03;1.00;;;18.90;99.90;;;;;;5095876;28;20043;-75
2023/10/13 10:46:14;;;;;;;1.52;1.15;;;19.00;99.90;;;;;;5095996;28;20032;-76
2023/10/13 10:48:42;;;;;;;1.13;0.57;;;19.10;99.90;;;;;;5095722;28;20081;-77
2023/10/13 10:51:21;;;;;;;1.48;0.95;;;19.20;99.90;;;;;;5095811;28;20036;-73
2023/10/13 10:53:51;;;;;;;0.63;0.63;;;19.20;99.90;;;;;;5095878;28;20479;-78
2023/10/13 10:56:36;;;;;;;0.40;0.40;;;19.30;99.90;;;;;;5096016;28;20031;-76
2023/10/13 10:59:04;;;;;;;0.52;0.52;;;19.20;99.90;;;;;;5095614;28;20036;-74
2023/10/13 11:01:33;;;;;;;0.70;0.70;;;19.30;99.90;;;;;;5095511;28;20383;-74
2023/10/13 11:04:18;;;;;;;0.80;0.80;;;19.40;99.90;;;;;;5095333;28;20043;-74
2023/10/13 11:06:55;;;;;;;2.35;0.93;;;19.30;99.90;;;;;;5094682;28;20036;-77
2023/10/13 11:12:24;;;;;;;0.40;0.40;;;19.30;99.90;;;;;;5095041;28;20051;-78
2023/10/13 11:15:01;;;;;;;1.65;1.25;;;19.30;99.90;;;;;;5095187;28;20074;-76
2023/10/13 11:17:38;;;;;;;1.20;0.50;;;19.30;99.90;;;;;;5095135;28;20039;-74
2023/10/13 11:20:16;;;;;;;2.85;0.70;;;19.30;99.90;;;;;;5093786;28;20052;-75
2023/10/13 11:22:47;;;;;;;1.80;1.02;;;19.40;99.90;;;;;;5094545;28;20093;-75
2023/10/13 11:25:30;;;;;;;0.47;0.45;;;19.40;99.90;;;;;;5094927;28;20059;-75
2023/10/13 11:27:58;;;;;;;0.40;0.40;;;19.40;99.90;;;;;;5094908;28;20054;-75
2023/10/13 11:30:29;;;;;;;0.60;0.60;;;19.40;99.90;;;;;;5094577;28;20044;-76
2023/10/13 11:33:10;;;;;;;0.50;0.50;;;19.50;99.90;;;;;;5093556;28;20140;-76
2023/10/13 11:35:49;;;;;;;0.50;0.50;;;19.50;99.90;;;;;;5094642;28;20044;-76
2023/10/13 11:38:24;;;;;;;15.80;0.95;;;19.50;99.90;;;;;;5094658;28;20072;-81
2023/10/13 11:41:34;;;;;;;1.63;1.05;;;19.60;99.90;;;;;;5094476;28;20044;-78
2023/10/13 11:46:13;;;;;;;0.70;0.70;;;19.70;99.90;;;;;;5094002;28;20138;-77
2023/10/13 11:48:43;;;;;;;0.60;0.60;;;19.90;99.90;;;;;;5094396;28;20071;-77
2023/10/13 11:51:31;;;;;;;1.10;1.00;;;20.00;99.90;;;;;;5093423;28;20036;-77
2023/10/13 11:53:58;;;;;;;0.60;0.60;;;20.00;99.90;;;;;;5093843;28;20126;-76
2023/10/13 11:56:24;;;;;;;1.25;0.85;;;20.00;99.90;;;;;;5094168;28;20072;-77
2023/10/13 11:58:52;;;;;;;0.50;0.50;;;20.10;99.90;;;;;;5094324;28;20048;-77
2023/10/13 12:11:54;;;;;;;1.08;0.95;;;20.10;99.90;;;;;;5093832;28;20468;-77
2023/10/13 12:14:52;;;;;;;2.38;1.30;;;20.10;99.90;;;;;;5092976;28;20090;-77
2023/10/13 12:17:31;;;;;;;1.77;1.30;;;20.00;99.90;;;;;;5094012;28;20043;-77
2023/10/13 12:20:09;;;;;;;0.60;0.60;;;20.00;99.90;;;;;;5092866;28;20109;-77
2023/10/13 12:22:35;;;;;;;0.85;0.82;;;20.00;99.90;;;;;;5094152;28;20036;-77
2023/10/13 12:25:05;;;;;;;;;;;20.00;99.90;;;;;;5093780;28;20165;-77
2023/10/13 12:27:45;;;;;;;0.77;0.75;;;20.00;99.90;;;;;;5093685;28;19916;-77
2023/10/13 12:30:13;;;;;;;2.40;1.73;;;20.00;99.90;;;;;;5093636;28;20471;-77
2023/10/13 12:32:53;;;;;;;6.85;0.95;;;20.00;99.90;;;;;;5093764;28;20032;-77
2023/10/13 12:35:34;;;;;;;1.23;0.90;;;20.00;99.90;;;;;;5094038;28;20044;-77
2023/10/13 12:38:08;;;;;;;0.73;0.70;;;20.00;99.90;;;;;;5093495;28;20032;-78
2023/10/13 12:48:59;;;;;;;1.60;1.17;;;20.00;99.90;;;;;;5093792;28;20379;-77
2023/10/13 12:56:45;;;;;;;0.63;0.55;;;20.10;99.90;;;;;;5093154;28;20468;-77
2023/10/13 12:59:14;;;;;;;0.57;0.57;;;20.20;99.90;;;;;;5093513;28;20044;-77
2023/10/13 13:01:43;;;;;;;0.98;0.85;;;20.10;99.90;;;;;;5093488;28;20376;-77
2023/10/13 13:04:19;;;;;;;0.63;0.63;;;20.20;99.90;;;;;;5093452;28;20119;-77
2023/10/13 13:06:48;;;;;;;1.08;0.98;;;20.20;99.90;;;;;;5092379;28;20044;-77
2023/10/13 13:09:14;;;;;;;1.30;0.75;;;20.20;99.90;;;;;;5092682;28;20522;-76
2023/10/13 13:11:40;;;;;;;7.33;1.10;;;20.20;99.90;;;;;;5093252;28;20044;-78
2023/10/13 13:14:09;;;;;;;2.93;1.13;;;20.20;99.90;;;;;;5093397;28;20422;-76
2023/10/13 13:16:38;;;;;;;0.50;0.50;;;20.20;99.90;;;;;;5093198;28;20039;-77
2023/10/13 13:19:09;;;;;;;0.65;0.40;;;20.20;99.90;;;;;;5093159;28;20075;-77
2023/10/13 13:21:38;;;;;;;2.60;0.98;;;20.20;99.90;;;;;;5093052;28;20067;-76
2023/10/13 13:24:10;;;;;;;2.13;1.30;;;20.20;99.90;;;;;;5093181;28;20391;-77
2023/10/13 13:26:40;;;;;;;1.20;1.10;;;20.30;99.90;;;;;;5093308;28;20069;-77
2023/10/13 13:29:09;;;;;;;1.92;1.70;;;20.30;99.90;;;;;;5092029;28;20086;-77
2023/10/13 13:31:40;;;;;;;1.73;0.95;;;20.30;99.90;;;;;;5096551;28;20076;-76
2023/10/13 13:34:09;;;;;;;0.70;0.70;;;20.30;99.90;;;;;;5097044;28;20048;-77
2023/10/13 13:36:35;;;;;;;1.60;1.15;;;20.30;99.90;;;;;;5096309;28;20040;-77
2023/10/13 13:39:01;;;;;;;1.88;0.95;;;20.40;99.90;;;;;;5097004;28;20040;-78
2023/10/13 13:41:27;;;;;;;1.50;0.63;;;20.40;99.90;;;;;;5096983;28;20131;-77
2023/10/13 13:43:55;;;;;;;1.70;0.70;;;20.40;99.90;;;;;;5096906;28;20270;-77
2023/10/13 13:46:24;;;;;;;0.95;0.85;;;20.30;99.90;;;;;;5096493;28;20047;-77
2023/10/13 13:48:57;;;;;;;0.80;0.77;;;20.40;99.90;;;;;;5096787;28;20051;-77
2023/10/13 13:51:27;;;;;;;1.63;0.63;;;20.40;99.90;;;;;;5096795;28;20060;-77
2023/10/13 13:53:56;;;;;;;0.60;0.60;;;20.30;99.90;;;;;;5096602;28;20055;-77
2023/10/13 13:56:25;;;;;;;1.13;1.02;;;20.30;99.90;;;;;;5096683;28;20036;-77
2023/10/13 13:58:54;;;;;;;1.45;0.90;;;20.20;99.90;;;;;;5096468;28;20428;-76
2023/10/13 14:01:25;;;;;;;1.65;1.35;;;20.20;99.90;;;;;;5096060;28;20065;-79
2023/10/13 14:03:51;;;;;;;0.80;0.50;;;20.10;99.90;;;;;;5096163;28;20048;-79
2023/10/13 14:06:26;;;;;;;2.58;0.77;;;20.00;99.90;;;;;;5095132;28;20049;-78
2023/10/13 14:08:59;;;;;;;1.00;0.77;;;20.00;99.90;;;;;;5095148;28;20074;-80
2023/10/13 14:16:50;;;;;;;0.95;0.80;;;19.80;99.90;;;;;;5096202;28;20087;-79
2023/10/13 14:19:29;;;;;;;2.27;1.77;;;19.70;99.90;;;;;;5096303;28;20100;-80
2023/10/13 14:21:56;;;;;;;12.48;1.40;;;19.60;99.90;;;;;;5096230;28;20036;-81
2023/10/13 14:24:32;;;;;;;1.00;0.73;;;19.50;99.90;;;;;;5096204;28;20141;-79
2023/10/13 14:27:07;;;;;;;0.60;0.60;;;19.50;99.90;;;;;;5096125;28;20040;-78
2023/10/13 14:29:40;;;;;;;0.65;0.65;;;19.40;99.90;;;;;;5093779;28;20040;-80
2023/10/13 14:32:11;;;;;;;0.47;0.40;;;19.40;99.90;;;;;;5096130;28;20047;-78
2023/10/13 14:34:38;;;;;;;2.45;0.77;;;19.40;99.90;;;;;;5095568;28;20471;-80
2023/10/13 14:37:04;;;;;;;1.80;0.95;;;19.30;99.90;;;;;;5095789;28;20032;-77
2023/10/13 14:39:30;;;;;;;1.97;1.23;;;19.30;99.90;;;;;;5094938;28;20584;-80
2023/10/13 14:41:56;;;;;;;0.75;0.52;;;19.30;99.90;;;;;;5094653;28;20134;-78
2023/10/13 14:44:26;;;;;;;1.17;1.07;;;19.30;99.90;;;;;;5095801;28;20450;-79
2023/10/13 14:46:55;;;;;;;1.13;0.75;;;19.30;99.90;;;;;;5095788;28;20040;-79
2023/10/13 14:49:21;;;;;;;1.52;1.00;;;19.20;99.90;;;;;;5095269;28;20429;-78
2023/10/13 14:51:47;;;;;;;7.60;1.13;;;19.20;99.90;;;;;;5095429;28;20032;-79
2023/10/13 14:54:14;;;;;;;1.10;1.00;;;19.20;99.90;;;;;;5095582;28;20039;-77
2023/10/13 14:56:42;;;;;;;4.45;1.80;;;19.20;99.90;;;;;;5095560;28;20048;-80
2023/10/13 14:59:16;;;;;;;1.45;0.68;;;19.10;99.90;;;;;;5095546;28;20451;-81
2023/10/13 15:01:42;;;;;;;0.95;0.88;;;19.00;99.90;;;;;;5095359;28;20081;-81
2023/10/13 15:04:08;;;;;;;2.10;0.77;;;19.00;99.90;;;;;;5095081;28;20369;-81
2023/10/13 15:06:33;;;;;;;2.47;1.23;;;18.90;99.90;;;;;;5095309;28;20071;-82
2023/10/13 15:09:00;;;;;;;1.67;1.30;;;18.70;99.90;;;;;;5095332;28;20055;-81
2023/10/13 15:11:40;;;;;;;;;;;18.70;99.90;;;;;;5094766;28;20036;-83
2023/10/13 15:14:08;;;;;;;1.50;1.00;;;18.60;99.90;;;;;;5095472;28;19916;-80
2023/10/13 15:16:34;;;;;;;1.08;0.47;;;18.50;99.90;;;;;;5095709;28;20061;-77
2023/10/13 15:19:00;;;;;;;0.80;0.77;;;18.40;99.90;;;;;;5094874;28;20048;-80
2023/10/13 15:21:36;;;;;;;0.80;0.60;;;18.30;99.90;;;;;;5094108;28;20433;-79
2023/10/13 15:24:04;;;;;;;1.73;0.90;;;18.30;99.90;;;;;;5101831;28;20040;-80
2023/10/13 15:26:30;;;;;;;1.48;1.38;;;18.30;99.90;;;;;;5102832;28;20092;-79
2023/10/13 15:28:57;;;;;;;2.10;1.65;;;18.20;99.90;;;;;;5100892;28;20154;-79
2023/10/13 15:31:37;;;;;;;1.60;0.95;;;18.20;99.90;;;;;;5097618;28;20040;-73
2023/10/13 15:34:07;;;;;;;0.47;0.47;;;18.20;99.90;;;;;;5094733;28;20044;-72
2023/10/13 15:36:35;;;;;;;2.08;1.02;;;18.10;99.90;;;;;;5094869;28;20463;-72
2023/10/13 15:39:01;;;;;;;1.02;0.90;;;18.20;99.90;;;;;;5094748;28;20059;-73
2023/10/13 15:41:28;;;;;;;1.23;1.07;;;18.10;99.90;;;;;;5083317;28;20468;-79
2023/10/13 15:43:55;;;;;;;0.65;0.65;;;18.10;99.90;;;;;;5075270;28;20048;-77
2023/10/13 15:46:22;;;;;;;1.13;0.93;;;18.10;99.90;;;;;;5074297;28;20040;-78
2023/10/13 15:48:49;;;;;;;0.63;0.63;;;18.10;99.90;;;;;;5074169;28;20051;-76
2023/10/13 15:51:15;;;;;;;1.00;0.95;;;18.00;99.90;;;;;;5074372;28;20048;-76
2023/10/13 15:53:43;;;;;;;;;;;18.00;99.90;;;;;;5074470;28;20045;-74
2023/10/13 15:56:15;;;;;;;1.20;1.00;;;18.00;99.90;;;;;;5074300;28;20373;-75
2023/10/13 15:58:50;;;;;;;0.80;0.80;;;17.90;99.90;;;;;;5074194;28;20037;-78
2023/10/13 16:01:16;;;;;;;0.65;0.63;;;17.90;99.90;;;;;;5074098;28;20375;-77
2023/10/13 16:03:54;;;;;;;1.38;1.27;;;17.90;99.90;;;;;;5074117;28;20128;-74
2023/10/13 16:06:25;;;;;;;1.25;1.02;;;17.90;99.90;;;;;;5074164;28;20044;-76
2023/10/13 16:08:53;;;;;;;1.20;0.82;;;17.90;99.90;;;;;;5072655;28;20056;-79
2023/10/13 16:11:19;;;;;;;0.50;0.50;;;17.90;99.90;;;;;;5073760;28;20487;-77
2023/10/13 16:13:46;;;;;;;0.63;0.53;;;17.90;99.90;;;;;;5073915;28;20037;-76
2023/10/13 16:16:18;;;;;;;;;;;17.90;99.90;;;;;;5074280;28;20059;-79
2023/10/13 16:18:44;;;;;;;0.57;0.55;;;17.90;99.90;;;;;;5074071;28;19923;-77
2023/10/13 16:21:14;;;;;;;0.50;0.50;;;17.80;99.90;;;;;;5073875;28;20077;-72
2023/10/13 16:23:41;;;;;;;1.55;1.08;;;17.90;99.90;;;;;;5073438;28;20055;-74
2023/10/13 16:26:08;;;;;;;0.82;0.82;;;17.80;99.90;;;;;;5074131;28;20487;-74
2023/10/13 16:28:35;;;;;;;1.33;0.55;;;17.80;99.90;;;;;;5073047;28;20056;-74
2023/10/13 16:31:02;;;;;;;0.93;0.82;;;17.80;99.90;;;;;;5073682;28;20051;-74
2023/10/13 16:33:28;;;;;;;0.85;0.75;;;17.80;99.90;;;;;;5073901;28;20072;-73
2023/10/13 16:35:56;;;;;;;0.60;0.60;;;17.70;99.90;;;;;;5073587;28;20056;-74
2023/10/13 16:38:24;;;;;;;1.92;1.67;;;17.80;99.90;;;;;;5073606;28;20162;-75